Defeated, Tennessee
Current Conditions -  °F | °C
As of 2:55 PM on Sunday 21 Dec 2014 (Local Time) from KSRB Reporting Station
Overcast Overcast  
Wind Chill: 52°   Ceiling: 4100
Heat Index: 52°   Visibility: 10mi
Dew Point: 37°   Wind: 9mph
Humidity: 58%   Direction: 170°S
Pressure: 30.09"   Gusts: NA
Location:  36.2454°N, 86.0046°W
Report Text: KSRB 212055Z AUTO 17008KT 10SM OVC041 11/03 A3009 RMK
Loading
Personal Weather Stations






























Interactive Weather Map New forecast layout! Learn more

10-Day Weather Forecast

Advertisements
Track Severe Weather on mobile